Terminal Aerodrome Forecast
Issued by NWS Newport/Morehead City, NC

Home | Current Version | Previous Version | Text Only | Print | Product List | Glossary Off
Versions: 1 2 3 4 5 6 7 8 9 10 11 12 13 14 15 16 17 18 19 20 21 22 23 24

000
FTUS42 KMHX 240540
TAFEWN
TAF
KEWN 240540Z 2406/2506 00000KT 1/2SM FG BKN003
     FM240800 00000KT 3/4SM BR BKN003
     FM241200 VRB03KT 3SM BR BKN020
     FM241400 22006KT P6SM BKN025
     FM241700 23008KT P6SM SCT035
     FM250000 20007KT P6SM SCT250=

USA.gov is the U.S. government's official web portal to all federal, state and local government web resources and services.